sensor_id;sensor_type;location;lat;lon;timestamp;pressure;altitude;pressure_sealevel;temperature;humidity
44138;BME280;29800;55.942;37.314;2023-01-27T00:02:01;99677.13;;;-1.92;75.26
44138;BME280;29800;55.942;37.314;2023-01-27T00:04:28;99677.81;;;-1.98;75.28
44138;BME280;29800;55.942;37.314;2023-01-27T00:06:54;99672.81;;;-2.01;75.01
44138;BME280;29800;55.942;37.314;2023-01-27T00:09:20;99674.81;;;-2.04;75.42
44138;BME280;29800;55.942;37.314;2023-01-27T00:11:46;99673.16;;;-2.05;75.04
44138;BME280;29800;55.942;37.314;2023-01-27T00:14:31;99673.81;;;-2.03;75.16
44138;BME280;29800;55.942;37.314;2023-01-27T00:16:57;99675.16;;;-2.07;74.76
44138;BME280;29800;55.942;37.314;2023-01-27T00:19:23;99672.28;;;-2.05;75.06
44138;BME280;29800;55.942;37.314;2023-01-27T00:21:49;99667.47;;;-2.10;75.02
44138;BME280;29800;55.942;37.314;2023-01-27T00:24:33;99677.81;;;-2.07;75.26
44138;BME280;29800;55.942;37.314;2023-01-27T00:27:03;99685.03;;;-2.07;75.09
44138;BME280;29800;55.942;37.314;2023-01-27T00:29:30;99683.38;;;-2.08;74.82
44138;BME280;29800;55.942;37.314;2023-01-27T00:32:00;99671.81;;;-2.17;75.17
44138;BME280;29800;55.942;37.314;2023-01-27T00:34:45;99667.81;;;-2.13;75.22
44138;BME280;29800;55.942;37.314;2023-01-27T00:37:11;99663.75;;;-2.17;75.00
44138;BME280;29800;55.942;37.314;2023-01-27T00:39:37;99669.47;;;-2.20;75.69
44138;BME280;29800;55.942;37.314;2023-01-27T00:42:04;99663.75;;;-2.17;75.55
44138;BME280;29800;55.942;37.314;2023-01-27T00:44:30;99654.72;;;-2.16;75.47
44138;BME280;29800;55.942;37.314;2023-01-27T00:46:56;99656.72;;;-2.10;75.33
44138;BME280;29800;55.942;37.314;2023-01-27T00:49:22;99655.72;;;-2.09;75.00
44138;BME280;29800;55.942;37.314;2023-01-27T00:51:48;99658.06;;;-2.14;75.38
44138;BME280;29800;55.942;37.314;2023-01-27T00:54:15;99655.56;;;-2.15;74.94
44138;BME280;29800;55.942;37.314;2023-01-27T00:56:45;99653.53;;;-2.13;74.91
44138;BME280;29800;55.942;37.314;2023-01-27T00:59:11;99655.06;;;-2.19;75.40
44138;BME280;29800;55.942;37.314;2023-01-27T01:01:37;99672.31;;;-2.22;75.19
44138;BME280;29800;55.942;37.314;2023-01-27T01:04:05;99646.03;;;-2.26;75.30
44138;BME280;29800;55.942;37.314;2023-01-27T01:06:31;99654.41;;;-2.29;75.61
44138;BME280;29800;55.942;37.314;2023-01-27T01:08:57;99650.69;;;-2.28;75.71
44138;BME280;29800;55.942;37.314;2023-01-27T01:11:24;99657.91;;;-2.37;76.06
44138;BME280;29800;55.942;37.314;2023-01-27T01:13:51;99655.75;;;-2.42;76.29
44138;BME280;29800;55.942;37.314;2023-01-27T01:16:20;99662.63;;;-2.39;76.27
44138;BME280;29800;55.942;37.314;2023-01-27T01:18:47;99654.25;;;-2.44;76.05
44138;BME280;29800;55.942;37.314;2023-01-27T01:21:14;99657.59;;;-2.42;76.19
44138;BME280;29800;55.942;37.314;2023-01-27T01:23:42;99650.22;;;-2.40;76.05
44138;BME280;29800;55.942;37.314;2023-01-27T01:26:14;99649.06;;;-2.37;76.39
44138;BME280;29800;55.942;37.314;2023-01-27T01:28:43;99650.88;;;-2.38;76.41
44138;BME280;29800;55.942;37.314;2023-01-27T01:31:12;99652.41;;;-2.35;76.07
44138;BME280;29800;55.942;37.314;2023-01-27T01:33:39;99639.00;;;-2.35;76.48
44138;BME280;29800;55.942;37.314;2023-01-27T01:36:10;99651.56;;;-2.36;76.17
44138;BME280;29800;55.942;37.314;2023-01-27T01:38:37;99645.34;;;-2.36;76.09
44138;BME280;29800;55.942;37.314;2023-01-27T01:41:11;99637.63;;;-2.31;75.97
44138;BME280;29800;55.942;37.314;2023-01-27T01:43:38;99645.34;;;-2.45;75.86
44138;BME280;29800;55.942;37.314;2023-01-27T01:46:07;99647.38;;;-2.47;76.22
44138;BME280;29800;55.942;37.314;2023-01-27T01:48:38;99636.66;;;-2.47;76.51
44138;BME280;29800;55.942;37.314;2023-01-27T01:51:33;99642.66;;;-2.36;76.28
44138;BME280;29800;55.942;37.314;2023-01-27T01:54:11;99630.94;;;-2.44;76.24
44138;BME280;29800;55.942;37.314;2023-01-27T01:59:14;99624.41;;;-2.49;76.53
44138;BME280;29800;55.942;37.314;2023-01-27T02:01:42;99624.59;;;-2.51;76.39
44138;BME280;29800;55.942;37.314;2023-01-27T02:04:11;99632.97;;;-2.46;76.60
44138;BME280;29800;55.942;37.314;2023-01-27T02:06:47;99625.59;;;-2.44;76.12
44138;BME280;29800;55.942;37.314;2023-01-27T02:09:16;99629.59;;;-2.48;76.63
44138;BME280;29800;55.942;37.314;2023-01-27T02:11:42;99621.91;;;-2.51;76.41
44138;BME280;29800;55.942;37.314;2023-01-27T02:14:10;99624.25;;;-2.48;76.45
44138;BME280;29800;55.942;37.314;2023-01-27T02:16:37;99622.59;;;-2.49;76.03
44138;BME280;29800;55.942;37.314;2023-01-27T02:19:04;99628.09;;;-2.50;76.17
44138;BME280;29800;55.942;37.314;2023-01-27T02:21:33;99627.44;;;-2.52;75.90
44138;BME280;29800;55.942;37.314;2023-01-27T02:24:01;99627.44;;;-2.52;76.10
44138;BME280;29800;55.942;37.314;2023-01-27T02:26:33;99624.94;;;-2.54;76.20
44138;BME280;29800;55.942;37.314;2023-01-27T02:29:06;99626.25;;;-2.50;76.45
44138;BME280;29800;55.942;37.314;2023-01-27T02:31:33;99622.59;;;-2.49;76.47
44138;BME280;29800;55.942;37.314;2023-01-27T02:34:24;99621.72;;;-2.49;76.66
44138;BME280;29800;55.942;37.314;2023-01-27T02:36:51;99620.72;;;-2.40;76.27
44138;BME280;29800;55.942;37.314;2023-01-27T02:39:21;99627.28;;;-2.43;75.98
44138;BME280;29800;55.942;37.314;2023-01-27T02:41:51;99625.75;;;-2.45;76.35
44138;BME280;29800;55.942;37.314;2023-01-27T02:44:19;99619.03;;;-2.49;76.33
44138;BME280;29800;55.942;37.314;2023-01-27T02:46:45;99614.72;;;-2.50;76.35
44138;BME280;29800;55.942;37.314;2023-01-27T02:49:12;99619.72;;;-2.47;76.19
44138;BME280;29800;55.942;37.314;2023-01-27T02:51:39;99616.56;;;-2.51;76.74
44138;BME280;29800;55.942;37.314;2023-01-27T02:54:05;99622.59;;;-2.49;76.43
44138;BME280;29800;55.942;37.314;2023-01-27T02:56:32;99612.53;;;-2.47;76.45
44138;BME280;29800;55.942;37.314;2023-01-27T02:58:58;99616.88;;;-2.46;76.39
44138;BME280;29800;55.942;37.314;2023-01-27T03:01:32;99615.53;;;-2.50;76.61
44138;BME280;29800;55.942;37.314;2023-01-27T03:03:59;99620.91;;;-2.50;76.50
44138;BME280;29800;55.942;37.314;2023-01-27T03:06:27;99621.72;;;-2.49;76.44
44138;BME280;29800;55.942;37.314;2023-01-27T03:08:53;99616.56;;;-2.51;76.40
44138;BME280;29800;55.942;37.314;2023-01-27T03:11:19;99617.88;;;-2.55;76.53
44138;BME280;29800;55.942;37.314;2023-01-27T03:14:06;99613.88;;;-2.51;76.74
44138;BME280;29800;55.942;37.314;2023-01-27T03:16:32;99616.19;;;-2.56;76.56
44138;BME280;29800;55.942;37.314;2023-01-27T03:19:17;99614.53;;;-2.57;76.86
44138;BME280;29800;55.942;37.314;2023-01-27T03:21:43;99620.25;;;-2.60;76.59
44138;BME280;29800;55.942;37.314;2023-01-27T03:24:11;99620.06;;;-2.59;76.56
44138;BME280;29800;55.942;37.314;2023-01-27T03:26:37;99610.00;;;-2.56;76.78
44138;BME280;29800;55.942;37.314;2023-01-27T03:29:06;99617.06;;;-2.55;76.48
44138;BME280;29800;55.942;37.314;2023-01-27T03:31:55;99614.22;;;-2.54;76.37
44138;BME280;29800;55.942;37.314;2023-01-27T03:34:21;99621.94;;;-2.59;76.55
44138;BME280;29800;55.942;37.314;2023-01-27T03:36:51;99627.63;;;-2.62;76.37
44138;BME280;29800;55.942;37.314;2023-01-27T03:39:35;99632.28;;;-2.64;76.91
44138;BME280;29800;55.942;37.314;2023-01-27T03:42:20;99632.81;;;-2.61;76.80
44138;BME280;29800;55.942;37.314;2023-01-27T03:45:05;99624.25;;;-2.56;76.65
44138;BME280;29800;55.942;37.314;2023-01-27T03:47:50;99628.28;;;-2.60;76.91
44138;BME280;29800;55.942;37.314;2023-01-27T03:50:16;99632.66;;;-2.59;76.71
44138;BME280;29800;55.942;37.314;2023-01-27T03:52:45;99628.28;;;-2.60;77.01
44138;BME280;29800;55.942;37.314;2023-01-27T03:55:32;99636.97;;;-2.58;77.31
44138;BME280;29800;55.942;37.314;2023-01-27T03:57:58;99636.81;;;-2.56;76.95
44138;BME280;29800;55.942;37.314;2023-01-27T04:00:48;99643.00;;;-2.56;77.22
44138;BME280;29800;55.942;37.314;2023-01-27T04:03:15;99636.66;;;-2.63;77.00
44138;BME280;29800;55.942;37.314;2023-01-27T04:06:16;99633.47;;;-2.67;77.96
44138;BME280;29800;55.942;37.314;2023-01-27T04:09:02;99639.16;;;-2.62;77.96
44138;BME280;29800;55.942;37.314;2023-01-27T04:11:29;99640.16;;;-2.54;77.41
44138;BME280;29800;55.942;37.314;2023-01-27T04:14:14;99642.84;;;-2.46;77.66
44138;BME280;29800;55.942;37.314;2023-01-27T04:16:40;99632.97;;;-2.46;77.61
44138;BME280;29800;55.942;37.314;2023-01-27T04:19:07;99637.31;;;-2.45;77.14
44138;BME280;29800;55.942;37.314;2023-01-27T04:21:34;99639.66;;;-2.42;77.30
44138;BME280;29800;55.942;37.314;2023-01-27T04:24:01;99644.69;;;-2.38;77.15
44138;BME280;29800;55.942;37.314;2023-01-27T04:26:28;99651.19;;;-2.33;77.12
44138;BME280;29800;55.942;37.314;2023-01-27T04:29:01;99656.91;;;-2.28;77.07
44138;BME280;29800;55.942;37.314;2023-01-27T04:31:27;99648.72;;;-2.26;77.16
44138;BME280;29800;55.942;37.314;2023-01-27T04:33:53;99646.69;;;-2.24;76.81
44138;BME280;29800;55.942;37.314;2023-01-27T04:36:19;99652.53;;;-2.20;76.28
44138;BME280;29800;55.942;37.314;2023-01-27T04:38:45;99648.88;;;-2.19;76.36
44138;BME280;29800;55.942;37.314;2023-01-27T04:41:12;99644.00;;;-2.16;76.57
44138;BME280;29800;55.942;37.314;2023-01-27T04:43:38;99653.19;;;-2.10;76.33
44138;BME280;29800;55.942;37.314;2023-01-27T04:46:04;99648.69;;;-2.10;76.44
44138;BME280;29800;55.942;37.314;2023-01-27T04:48:30;99656.19;;;-2.05;75.98
44138;BME280;29800;55.942;37.314;2023-01-27T04:50:56;99656.34;;;-1.98;75.82
44138;BME280;29800;55.942;37.314;2023-01-27T04:53:22;99663.22;;;-1.88;75.50
44138;BME280;29800;55.942;37.314;2023-01-27T04:55:48;99663.69;;;-1.84;75.50
44138;BME280;29800;55.942;37.314;2023-01-27T04:58:15;99654.66;;;-1.83;75.21
44138;BME280;29800;55.942;37.314;2023-01-27T05:00:45;99659.34;;;-1.77;75.10
44138;BME280;29800;55.942;37.314;2023-01-27T05:03:11;99661.84;;;-1.75;75.19
44138;BME280;29800;55.942;37.314;2023-01-27T05:05:37;99667.06;;;-1.82;74.71
44138;BME280;29800;55.942;37.314;2023-01-27T05:08:04;99658.84;;;-1.89;74.73
44138;BME280;29800;55.942;37.314;2023-01-27T05:10:31;99659.88;;;-1.90;74.58
44138;BME280;29800;55.942;37.314;2023-01-27T05:12:57;99660.53;;;-1.88;74.85
44138;BME280;29800;55.942;37.314;2023-01-27T05:15:24;99667.06;;;-1.82;74.74
44138;BME280;29800;55.942;37.314;2023-01-27T05:17:50;99665.38;;;-1.75;74.55
44138;BME280;29800;55.942;37.314;2023-01-27T05:20:16;99665.19;;;-1.73;74.79
44138;BME280;29800;55.942;37.314;2023-01-27T05:22:42;99670.06;;;-1.69;74.27
44138;BME280;29800;55.942;37.314;2023-01-27T05:25:08;99676.41;;;-1.70;73.81
44138;BME280;29800;55.942;37.314;2023-01-27T05:27:34;99678.09;;;-1.69;74.06
44138;BME280;29800;55.942;37.314;2023-01-27T05:30:00;99677.41;;;-1.71;74.28
44138;BME280;29800;55.942;37.314;2023-01-27T05:32:29;99682.44;;;-1.68;73.93
44138;BME280;29800;55.942;37.314;2023-01-27T05:34:55;99688.13;;;-1.62;73.96
44138;BME280;29800;55.942;37.314;2023-01-27T05:37:21;99684.75;;;-1.56;74.20
44138;BME280;29800;55.942;37.314;2023-01-27T05:39:47;99683.59;;;-1.54;73.55
44138;BME280;29800;55.942;37.314;2023-01-27T05:42:13;99680.06;;;-1.54;73.31
44138;BME280;29800;55.942;37.314;2023-01-27T05:44:39;99680.91;;;-1.54;73.32
44138;BME280;29800;55.942;37.314;2023-01-27T05:47:05;99677.19;;;-1.53;73.00
44138;BME280;29800;55.942;37.314;2023-01-27T05:49:31;99685.75;;;-1.49;73.20
44138;BME280;29800;55.942;37.314;2023-01-27T05:51:58;99688.44;;;-1.49;73.17
44138;BME280;29800;55.942;37.314;2023-01-27T05:54:23;99696.69;;;-1.51;73.09
44138;BME280;29800;55.942;37.314;2023-01-27T05:56:49;99688.75;;;-1.44;72.89
44138;BME280;29800;55.942;37.314;2023-01-27T05:59:15;99685.72;;;-1.41;72.64
44138;BME280;29800;55.942;37.314;2023-01-27T06:01:41;99699.50;;;-1.44;72.57
44138;BME280;29800;55.942;37.314;2023-01-27T06:04:10;99689.41;;;-1.42;72.73
44138;BME280;29800;55.942;37.314;2023-01-27T06:06:36;99688.41;;;-1.41;72.25
44138;BME280;29800;55.942;37.314;2023-01-27T06:09:02;99691.09;;;-1.41;72.67
44138;BME280;29800;55.942;37.314;2023-01-27T06:11:29;99686.56;;;-1.40;72.57
44138;BME280;29800;55.942;37.314;2023-01-27T06:13:55;99689.72;;;-1.37;72.36
44138;BME280;29800;55.942;37.314;2023-01-27T06:16:22;99688.03;;;-1.30;72.48
44138;BME280;29800;55.942;37.314;2023-01-27T06:18:48;99691.03;;;-1.24;71.88
44138;BME280;29800;55.942;37.314;2023-01-27T06:21:15;99697.06;;;-1.22;71.86
44138;BME280;29800;55.942;37.314;2023-01-27T06:23:42;99697.25;;;-1.24;71.92
44138;BME280;29800;55.942;37.314;2023-01-27T06:26:10;99696.72;;;-1.19;71.99
44138;BME280;29800;55.942;37.314;2023-01-27T06:28:37;99697.19;;;-1.16;71.81
44138;BME280;29800;55.942;37.314;2023-01-27T06:33:30;99697.72;;;-1.20;71.54
44138;BME280;29800;55.942;37.314;2023-01-27T06:36:06;99700.72;;;-1.15;71.63
44138;BME280;29800;55.942;37.314;2023-01-27T06:38:32;99709.00;;;-0.94;71.96
44138;BME280;29800;55.942;37.314;2023-01-27T06:40:59;99706.56;;;-1.12;71.37
44138;BME280;29800;55.942;37.314;2023-01-27T06:43:25;99702.41;;;-1.14;71.55
44138;BME280;29800;55.942;37.314;2023-01-27T06:45:52;99711.13;;;-1.12;71.22
44138;BME280;29800;55.942;37.314;2023-01-27T06:48:19;99706.09;;;-1.15;71.04
44138;BME280;29800;55.942;37.314;2023-01-27T06:50:45;99713.16;;;-1.14;71.29
44138;BME280;29800;55.942;37.314;2023-01-27T06:53:11;99714.44;;;-1.10;70.85
44138;BME280;29800;55.942;37.314;2023-01-27T06:55:39;99716.28;;;-1.02;71.25
44138;BME280;29800;55.942;37.314;2023-01-27T06:58:11;99714.56;;;-0.95;70.87
44138;BME280;29800;55.942;37.314;2023-01-27T07:00:39;99715.72;;;-0.89;70.53
44138;BME280;29800;55.942;37.314;2023-01-27T07:03:06;99719.91;;;-0.87;70.51
44138;BME280;29800;55.942;37.314;2023-01-27T07:05:33;99721.56;;;-0.86;70.41
44138;BME280;29800;55.942;37.314;2023-01-27T07:08:00;99717.00;;;-0.85;70.17
44138;BME280;29800;55.942;37.314;2023-01-27T07:10:26;99726.75;;;-0.84;70.28
44138;BME280;29800;55.942;37.314;2023-01-27T07:12:52;99713.97;;;-0.82;69.99
44138;BME280;29800;55.942;37.314;2023-01-27T07:15:28;99715.97;;;-0.76;70.13
44138;BME280;29800;55.942;37.314;2023-01-27T07:17:57;99720.63;;;-0.70;69.91
44138;BME280;29800;55.942;37.314;2023-01-27T07:20:23;99723.97;;;-0.68;69.75
44138;BME280;29800;55.942;37.314;2023-01-27T07:22:55;99724.47;;;-0.64;69.49
44138;BME280;29800;55.942;37.314;2023-01-27T07:25:21;99729.34;;;-0.68;69.16
44138;BME280;29800;55.942;37.314;2023-01-27T07:27:47;99736.78;;;-0.70;69.10
44138;BME280;29800;55.942;37.314;2023-01-27T07:30:13;99732.09;;;-0.76;69.14
44138;BME280;29800;55.942;37.314;2023-01-27T07:32:39;99736.00;;;-0.79;69.33
44138;BME280;29800;55.942;37.314;2023-01-27T07:35:05;99732.91;;;-0.76;69.84
44138;BME280;29800;55.942;37.314;2023-01-27T07:37:32;99740.16;;;-0.76;69.35
44138;BME280;29800;55.942;37.314;2023-01-27T07:39:58;99741.16;;;-0.77;69.34
44138;BME280;29800;55.942;37.314;2023-01-27T07:42:24;99746.69;;;-0.70;69.34
44138;BME280;29800;55.942;37.314;2023-01-27T07:44:50;99749.50;;;-0.64;69.22
44138;BME280;29800;55.942;37.314;2023-01-27T07:47:16;99753.16;;;-0.57;69.14
44138;BME280;29800;55.942;37.314;2023-01-27T07:49:42;99750.75;;;-0.51;68.75
44138;BME280;29800;55.942;37.314;2023-01-27T07:52:08;99749.06;;;-0.44;68.69
44138;BME280;29800;55.942;37.314;2023-01-27T07:54:34;99748.66;;;-0.41;68.25
44138;BME280;29800;55.942;37.314;2023-01-27T07:57:00;99751.34;;;-0.41;68.50
44138;BME280;29800;55.942;37.314;2023-01-27T07:59:27;99757.06;;;-0.36;67.90
44138;BME280;29800;55.942;37.314;2023-01-27T08:01:53;99749.00;;;-0.36;68.17
44138;BME280;29800;55.942;37.314;2023-01-27T08:04:19;99747.97;;;-0.35;68.35
44138;BME280;29800;55.942;37.314;2023-01-27T08:06:45;99742.88;;;-0.30;68.14
44138;BME280;29800;55.942;37.314;2023-01-27T08:09:11;99759.38;;;-0.33;68.03
44138;BME280;29800;55.942;37.314;2023-01-27T08:11:37;99759.56;;;-0.34;68.01
44138;BME280;29800;55.942;37.314;2023-01-27T08:14:03;99767.78;;;-0.28;68.30
44138;BME280;29800;55.942;37.314;2023-01-27T08:16:29;99764.03;;;-0.27;67.81
44138;BME280;29800;55.942;37.314;2023-01-27T08:18:55;99761.81;;;-0.23;67.66
44138;BME280;29800;55.942;37.314;2023-01-27T08:21:21;99764.91;;;-0.26;67.49
44138;BME280;29800;55.942;37.314;2023-01-27T08:23:47;99759.38;;;-0.33;67.22
44138;BME280;29800;55.942;37.314;2023-01-27T08:26:14;99760.28;;;-0.41;67.68
44138;BME280;29800;55.942;37.314;2023-01-27T08:28:40;99762.13;;;-0.41;68.02
44138;BME280;29800;55.942;37.314;2023-01-27T08:31:11;99757.91;;;-0.35;67.79
44138;BME280;29800;55.942;37.314;2023-01-27T08:33:39;99760.41;;;-0.34;67.87
44138;BME280;29800;55.942;37.314;2023-01-27T08:36:12;99766.38;;;-0.24;67.93
44138;BME280;29800;55.942;37.314;2023-01-27T08:38:40;99763.69;;;-0.24;67.58
44138;BME280;29800;55.942;37.314;2023-01-27T08:41:11;99750.19;;;-0.15;67.43
44138;BME280;29800;55.942;37.314;2023-01-27T08:43:38;99761.53;;;-0.05;67.24
44138;BME280;29800;55.942;37.314;2023-01-27T08:46:05;99752.72;;;0.01;66.91
44138;BME280;29800;55.942;37.314;2023-01-27T08:48:31;99763.31;;;0.03;67.14
44138;BME280;29800;55.942;37.314;2023-01-27T08:50:58;99754.88;;;0.06;66.94
44138;BME280;29800;55.942;37.314;2023-01-27T08:53:25;99759.25;;;0.07;66.67
44138;BME280;29800;55.942;37.314;2023-01-27T08:55:52;99752.66;;;0.09;66.63
44138;BME280;29800;55.942;37.314;2023-01-27T08:58:20;99754.16;;;0.12;66.03
44138;BME280;29800;55.942;37.314;2023-01-27T09:00:47;99758.34;;;0.14;66.38
44138;BME280;29800;55.942;37.314;2023-01-27T09:03:13;99761.03;;;0.14;66.47
44138;BME280;29800;55.942;37.314;2023-01-27T09:05:39;99755.53;;;0.08;66.07
44138;BME280;29800;55.942;37.314;2023-01-27T09:08:06;99757.75;;;0.04;66.15
44138;BME280;29800;55.942;37.314;2023-01-27T09:10:38;99767.16;;;0.08;66.53
44138;BME280;29800;55.942;37.314;2023-01-27T09:13:06;99770.56;;;0.02;66.09
44138;BME280;29800;55.942;37.314;2023-01-27T09:15:34;99774.81;;;-0.04;65.99
44138;BME280;29800;55.942;37.314;2023-01-27T09:18:01;99768.31;;;-0.09;66.63
44138;BME280;29800;55.942;37.314;2023-01-27T09:20:28;99765.25;;;-0.06;67.07
44138;BME280;29800;55.942;37.314;2023-01-27T09:22:56;99765.84;;;0.04;66.75
44138;BME280;29800;55.942;37.314;2023-01-27T09:25:23;99769.16;;;0.06;66.42
44138;BME280;29800;55.942;37.314;2023-01-27T09:27:54;99769.47;;;0.11;66.31
44138;BME280;29800;55.942;37.314;2023-01-27T09:30:21;99768.81;;;0.09;66.63
44138;BME280;29800;55.942;37.314;2023-01-27T09:32:47;99773.38;;;0.09;66.43
44138;BME280;29800;55.942;37.314;2023-01-27T09:35:15;99765.47;;;0.07;66.55
44138;BME280;29800;55.942;37.314;2023-01-27T09:38:10;99763.66;;;0.23;66.80
44138;BME280;29800;55.942;37.314;2023-01-27T09:49:16;99775.78;;;0.42;66.08
44138;BME280;29800;55.942;37.314;2023-01-27T10:12:23;99755.06;;;0.57;64.97
44138;BME280;29800;55.942;37.314;2023-01-27T10:28:22;99760.44;;;0.57;65.49
44138;BME280;29800;55.942;37.314;2023-01-27T10:30:58;99774.59;;;0.59;65.91
44138;BME280;29800;55.942;37.314;2023-01-27T10:33:53;99770.22;;;0.58;65.90
44138;BME280;29800;55.942;37.314;2023-01-27T10:36:37;99763.53;;;0.69;65.80
44138;BME280;29800;55.942;37.314;2023-01-27T10:42:17;99762.03;;;0.81;65.78
44138;BME280;29800;55.942;37.314;2023-01-27T10:47:57;99759.72;;;0.78;65.35
44138;BME280;29800;55.942;37.314;2023-01-27T10:50:35;99754.22;;;0.86;65.23
44138;BME280;29800;55.942;37.314;2023-01-27T10:53:13;99771.22;;;0.87;64.59
44138;BME280;29800;55.942;37.314;2023-01-27T10:56:06;99772.19;;;0.94;64.55
44138;BME280;29800;55.942;37.314;2023-01-27T11:01:29;99778.84;;;0.98;64.90
44138;BME280;29800;55.942;37.314;2023-01-27T11:04:01;99780.25;;;0.94;64.14
44138;BME280;29800;55.942;37.314;2023-01-27T11:06:33;99781.28;;;0.93;64.20
44138;BME280;29800;55.942;37.314;2023-01-27T11:11:45;99778.75;;;0.91;64.63
44138;BME280;29800;55.942;37.314;2023-01-27T11:14:43;99767.50;;;1.03;64.97
44138;BME280;29800;55.942;37.314;2023-01-27T11:17:48;99781.00;;;1.03;64.22
44138;BME280;29800;55.942;37.314;2023-01-27T11:20:32;99779.34;;;1.02;64.82
44138;BME280;29800;55.942;37.314;2023-01-27T11:25:52;99778.19;;;1.11;64.22
44138;BME280;29800;55.942;37.314;2023-01-27T11:31:21;99777.00;;;1.14;63.68
44138;BME280;29800;55.942;37.314;2023-01-27T11:34:06;99781.16;;;1.16;64.39
44138;BME280;29800;55.942;37.314;2023-01-27T11:36:35;99787.03;;;1.05;63.97
44138;BME280;29800;55.942;37.314;2023-01-27T11:39:02;99787.69;;;1.07;63.80
44138;BME280;29800;55.942;37.314;2023-01-27T11:41:37;99784.91;;;1.15;64.15
44138;BME280;29800;55.942;37.314;2023-01-27T11:44:27;99782.84;;;1.17;64.05
44138;BME280;29800;55.942;37.314;2023-01-27T11:46:54;99777.44;;;1.17;63.57
44138;BME280;29800;55.942;37.314;2023-01-27T11:49:25;99784.13;;;1.21;64.09
44138;BME280;29800;55.942;37.314;2023-01-27T11:51:59;99780.41;;;1.22;64.10
44138;BME280;29800;55.942;37.314;2023-01-27T11:54:35;99782.84;;;1.17;64.25
44138;BME280;29800;55.942;37.314;2023-01-27T11:57:13;99782.38;;;1.14;64.11
44138;BME280;29800;55.942;37.314;2023-01-27T11:59:42;99778.94;;;1.05;63.64
44138;BME280;29800;55.942;37.314;2023-01-27T12:02:25;99788.06;;;1.04;64.26
44138;BME280;29800;55.942;37.314;2023-01-27T12:05:14;99791.41;;;1.06;64.41
44138;BME280;29800;55.942;37.314;2023-01-27T12:10:32;99785.19;;;1.05;64.74
44138;BME280;29800;55.942;37.314;2023-01-27T12:13:27;99793.91;;;1.22;64.40
44138;BME280;29800;55.942;37.314;2023-01-27T12:16:01;99791.13;;;1.16;63.88
44138;BME280;29800;55.942;37.314;2023-01-27T12:18:32;99795.88;;;1.14;64.14
44138;BME280;29800;55.942;37.314;2023-01-27T12:21:01;99796.31;;;1.17;64.46
44138;BME280;29800;55.942;37.314;2023-01-27T12:23:35;99798.56;;;1.28;63.99
44138;BME280;29800;55.942;37.314;2023-01-27T12:26:06;99800.41;;;1.28;63.95
44138;BME280;29800;55.942;37.314;2023-01-27T12:28:37;99800.78;;;1.25;63.76
44138;BME280;29800;55.942;37.314;2023-01-27T12:31:12;99805.81;;;1.28;63.52
44138;BME280;29800;55.942;37.314;2023-01-27T12:33:45;99807.47;;;1.29;63.57
44138;BME280;29800;55.942;37.314;2023-01-27T12:36:17;99800.31;;;1.36;63.32
44138;BME280;29800;55.942;37.314;2023-01-27T12:38:51;99805.91;;;1.35;63.80
44138;BME280;29800;55.942;37.314;2023-01-27T12:41:24;99808.63;;;1.20;63.62
44138;BME280;29800;55.942;37.314;2023-01-27T12:43:56;99801.63;;;1.10;63.58
44138;BME280;29800;55.942;37.314;2023-01-27T12:46:23;99812.34;;;1.04;63.62
44138;BME280;29800;55.942;37.314;2023-01-27T12:48:51;99812.50;;;1.02;63.80
44138;BME280;29800;55.942;37.314;2023-01-27T12:51:23;99813.78;;;1.06;64.39
44138;BME280;29800;55.942;37.314;2023-01-27T12:54:23;99816.22;;;1.16;64.18
44138;BME280;29800;55.942;37.314;2023-01-27T12:56:52;99815.75;;;1.13;64.03
44138;BME280;29800;55.942;37.314;2023-01-27T12:59:20;99826.53;;;1.13;64.02
44138;BME280;29800;55.942;37.314;2023-01-27T13:04:42;99827.19;;;1.15;63.46
44138;BME280;29800;55.942;37.314;2023-01-27T13:07:15;99826.00;;;1.17;63.98
44138;BME280;29800;55.942;37.314;2023-01-27T13:09:59;99826.44;;;1.21;63.59
44138;BME280;29800;55.942;37.314;2023-01-27T13:12:29;99837.50;;;1.11;63.78
44138;BME280;29800;55.942;37.314;2023-01-27T13:14:57;99839.19;;;1.12;63.60
44138;BME280;29800;55.942;37.314;2023-01-27T13:17:49;99832.88;;;1.20;63.86
44138;BME280;29800;55.942;37.314;2023-01-27T13:22:52;99842.53;;;1.14;63.87
44138;BME280;29800;55.942;37.314;2023-01-27T13:28:27;99845.13;;;1.22;64.23
44138;BME280;29800;55.942;37.314;2023-01-27T13:31:01;99838.47;;;1.18;64.04
44138;BME280;29800;55.942;37.314;2023-01-27T13:33:44;99846.16;;;1.21;64.63
44138;BME280;29800;55.942;37.314;2023-01-27T13:36:43;99850.63;;;1.29;64.93
44138;BME280;29800;55.942;37.314;2023-01-27T13:39:26;99856.28;;;1.19;64.56
44138;BME280;29800;55.942;37.314;2023-01-27T13:44:42;99858.81;;;1.06;64.64
44138;BME280;29800;55.942;37.314;2023-01-27T13:47:33;99865.50;;;1.10;65.57
44138;BME280;29800;55.942;37.314;2023-01-27T13:50:07;99862.91;;;1.02;65.77
44138;BME280;29800;55.942;37.314;2023-01-27T13:52:41;99863.63;;;0.96;65.63
44138;BME280;29800;55.942;37.314;2023-01-27T13:55:11;99864.38;;;1.04;66.01
44138;BME280;29800;55.942;37.314;2023-01-27T14:00:31;99861.59;;;1.13;65.37
44138;BME280;29800;55.942;37.314;2023-01-27T14:03:19;99863.09;;;1.15;65.68
44138;BME280;29800;55.942;37.314;2023-01-27T14:11:41;99867.34;;;1.39;65.38
44138;BME280;29800;55.942;37.314;2023-01-27T14:27:31;99882.34;;;1.42;65.18
44138;BME280;29800;55.942;37.314;2023-01-27T14:30:23;99889.41;;;1.43;65.42
44138;BME280;29800;55.942;37.314;2023-01-27T14:32:52;99895.09;;;1.33;64.64
44138;BME280;29800;55.942;37.314;2023-01-27T14:35:30;99883.94;;;1.36;64.95
44138;BME280;29800;55.942;37.314;2023-01-27T14:38:12;99891.91;;;1.29;64.98
44138;BME280;29800;55.942;37.314;2023-01-27T14:43:49;99891.44;;;1.41;65.18
44138;BME280;29800;55.942;37.314;2023-01-27T14:51:41;99905.59;;;1.28;65.76
44138;BME280;29800;55.942;37.314;2023-01-27T14:54:23;99900.66;;;1.17;65.81
44138;BME280;29800;55.942;37.314;2023-01-27T14:57:08;99915.25;;;1.22;65.57
44138;BME280;29800;55.942;37.314;2023-01-27T15:00:20;99918.13;;;1.21;66.00
44138;BME280;29800;55.942;37.314;2023-01-27T15:05:59;99923.44;;;1.29;65.97